Circle Line Bronx — WDJ2555 — position and weather

sailwx.info

Track history (hours):
 
Tides and Currents Weather Stations Pressure Air Temp Water Temp Dewpoint Dewpoint Depression Visibility Wind Speed Wind Dir Waves Ship Positions

Circle Line Bronx

Owner: Circle Line Sightseeing Yachts Inc., New York, NY. More information available from US FCC via Universal Licensing System and Coast Guard Vessel Documentation Center.

Last reported at 2017-Nov-17 23:00 UTC. Time now 2017-Nov-17 23:21 UTC.
Position N 40°46' W 074°00'.

Length 50 m.

Type: Passenger vessel. MMSI: 367759510.

Date/timePositionNaut miles runAvg speedWind from/ knotsBaromVisibWave heightAir tempDewpointWater temp
2017-Nov-17 23:00N 40°46' W 074°00'0 0.0
2017-Nov-17 22:30N 40°46' W 074°00'0 0.0
2017-Nov-17 22:00N 40°46' W 074°00'4 8.0
2017-Nov-17 21:30N 40°42' W 074°01'1 1.9
2017-Nov-17 21:00N 40°41' W 074°02'5 9.2
2017-Nov-17 20:30N 40°46' W 074°00'0 0.0
2017-Nov-17 20:00N 40°46' W 074°00'0 0.0
2017-Nov-17 19:30N 40°46' W 074°00'4 8.9
2017-Nov-17 19:01N 40°42' W 074°02'4 8.5
2017-Nov-17 18:30N 40°46' W 074°00'0 0.0
2017-Nov-17 18:00N 40°46' W 074°00'0 0.0
2017-Nov-17 17:30N 40°46' W 074°00'0 0.0
2017-Nov-17 17:00N 40°46' W 074°00'0 0.0
2017-Nov-17 16:30N 40°46' W 074°00'0 0.0
2017-Nov-17 16:00N 40°46' W 074°00'0 0.0
2017-Nov-17 15:30N 40°46' W 074°00'0 0.0
2017-Nov-17 15:00N 40°46' W 074°00'0 0.0
2017-Nov-17 14:30N 40°46' W 074°00'0 0.0
2017-Nov-16 19:25N 40°46' W 074°00'410.6
2017-Nov-16 19:01N 40°42' W 074°02'4 8.4
2017-Nov-16 18:30N 40°46' W 074°00'0 0.0
2017-Nov-16 18:00N 40°46' W 074°00'0 0.0
2017-Nov-16 17:30N 40°46' W 074°00'0 0.0
2017-Nov-16 17:00N 40°46' W 074°00'0 0.0
2017-Nov-16 16:30N 40°46' W 074°00'0 0.0
2017-Nov-16 16:00N 40°46' W 074°00'510.2
2017-Nov-16 15:30N 40°41' W 074°03'5 9.9
2017-Nov-16 15:00N 40°46' W 074°00'0 0.0
2017-Nov-16 14:30N 40°46' W 074°00'0 0.0
2017-Nov-16 14:00N 40°46' W 074°00'0 0.0
2017-Nov-16 13:30N 40°46' W 074°00'0 0.0
2017-Nov-16 13:00N 40°46' W 074°00'0 0.0
2017-Nov-15 19:27N 40°46' W 074°00'510.9
2017-Nov-15 19:00N 40°41' W 074°02'5 9.5
2017-Nov-15 18:30N 40°46' W 074°00'0 0.0
2017-Nov-15 18:00N 40°46' W 074°00'0 0.0
2017-Nov-15 17:30N 40°46' W 074°00'0 0.0
2017-Nov-15 17:00N 40°46' W 074°00'0 0.0
2017-Nov-15 16:30N 40°46' W 074°00'0 0.0
2017-Nov-15 16:00N 40°46' W 074°00'5 9.5
2017-Nov-15 15:30N 40°41' W 074°02'5 9.4
2017-Nov-15 15:00N 40°46' W 074°00'0 0.0
2017-Nov-15 14:31N 40°46' W 074°00'0 0.0
2017-Nov-15 14:00N 40°46' W 074°00'0 0.0
2017-Nov-15 13:30N 40°46' W 074°00'0 0.0
2017-Nov-15 13:00N 40°46' W 074°00'0 0.0
2017-Nov-15 12:30N 40°46' W 074°00'0 0.0
2017-Nov-15 12:00N 40°46' W 074°00'0 0.0
2017-Nov-15 01:48N 40°46' W 074°00'2 6.7
2017-Nov-15 01:30N 40°44' W 074°01'3 5.3
2017-Nov-15 01:00N 40°45' W 073°58'510.5
2017-Nov-15 00:30N 40°41' W 074°03'5 9.7
2017-Nov-15 00:00N 40°46' W 074°00'0 0.0
2017-Nov-14 23:30N 40°46' W 074°00'0 0.0
2017-Nov-14 23:00N 40°46' W 074°00'0 0.0
2017-Nov-14 22:30N 40°46' W 074°00'0 0.0
2017-Nov-14 22:00N 40°46' W 074°00'4 8.1
2017-Nov-14 21:31N 40°42' W 074°01'1 1.4
2017-Nov-14 21:00N 40°42' W 074°02'4 8.6
2017-Nov-14 20:30N 40°46' W 074°00'0 0.0
2017-Nov-14 20:00N 40°46' W 074°00'0 0.0
2017-Nov-14 19:30N 40°46' W 074°00'5 9.5
2017-Nov-14 19:00N 40°41' W 074°02'5 9.3
2017-Nov-14 18:30N 40°46' W 074°00'0 0.0
2017-Nov-14 18:00N 40°46' W 074°00'0 0.0
2017-Nov-14 17:30N 40°46' W 074°00'0 0.0
2017-Nov-14 17:00N 40°46' W 074°00'0 0.0
2017-Nov-14 16:30N 40°46' W 074°00'0 0.0
2017-Nov-14 16:00N 40°46' W 074°00'0 0.0
2017-Nov-14 15:30N 40°46' W 074°00'0 0.0
2017-Nov-14 15:00N 40°46' W 074°00'  
2017-Nov-12 01:52N 40°46' W 074°00'3 7.5
2017-Nov-12 01:30N 40°43' W 074°01'3 5.9
2017-Nov-12 01:00N 40°44' W 073°58'5 9.8
2017-Nov-12 00:30N 40°41' W 074°03'510.0
2017-Nov-12 00:00N 40°46' W 074°00'0 0.0
2017-Nov-11 23:30N 40°46' W 074°00'0 0.0
2017-Nov-11 23:00N 40°46' W 074°00'0 0.0
2017-Nov-11 22:31N 40°46' W 074°00'0 0.0
2017-Nov-11 22:00N 40°46' W 074°00'3 7.0
2017-Nov-11 21:30N 40°42' W 073°59'3 5.4
2017-Nov-11 21:00N 40°41' W 074°02'5 9.4
2017-Nov-11 20:30N 40°46' W 074°00'0 0.0
2017-Nov-11 20:00N 40°46' W 074°00'0 0.0
2017-Nov-11 19:30N 40°46' W 074°00'4 8.7
2017-Nov-11 19:00N 40°42' W 074°02'4 8.5
2017-Nov-11 18:30N 40°46' W 074°00'0 0.0
2017-Nov-11 18:00N 40°46' W 074°00'0 0.0
2017-Nov-11 17:30N 40°46' W 074°00'0 0.0
2017-Nov-11 16:59N 40°46' W 074°00'0 0.0
2017-Nov-11 16:30N 40°46' W 074°00'0 0.0
2017-Nov-11 16:00N 40°46' W 074°00'0 0.0
2017-Nov-11 15:30N 40°46' W 074°00'0 0.0
2017-Nov-11 15:00N 40°46' W 074°00'0 0.0
2017-Nov-11 14:30N 40°46' W 074°00'0 0.0
2017-Nov-11 14:00N 40°46' W 074°00'0 0.0
2017-Nov-11 13:30N 40°46' W 074°00'0 0.0
2017-Nov-10 15:44N 40°46' W 074°00'1 5.4
2017-Nov-10 15:30N 40°47' W 073°60'  
Track history (hours):
 
Tides and Currents Weather Stations Pressure Air Temp Water Temp Dewpoint Dewpoint Depression Visibility Wind Speed Wind Dir Waves Ship Positions

Circle Line Bronx

Owner: Circle Line Sightseeing Yachts Inc., New York, NY. More information available from US FCC via Universal Licensing System and Coast Guard Vessel Documentation Center.

Last reported at 2017-Nov-17 23:00 UTC. Time now 2017-Nov-17 23:21 UTC.
Position N 40°46' W 074°00'.

Length 50 m.

Type: Passenger vessel. MMSI: 367759510.

Date/timePositionNaut miles runAvg speedWind from/ knotsBaromVisibWave heightAir tempDewpointWater temp
2017-Nov-17 23:00N 40°46' W 074°00'0 0.0
2017-Nov-17 22:30N 40°46' W 074°00'0 0.0
2017-Nov-17 22:00N 40°46' W 074°00'4 8.0
2017-Nov-17 21:30N 40°42' W 074°01'1 1.9
2017-Nov-17 21:00N 40°41' W 074°02'5 9.2
2017-Nov-17 20:30N 40°46' W 074°00'0 0.0
2017-Nov-17 20:00N 40°46' W 074°00'0 0.0
2017-Nov-17 19:30N 40°46' W 074°00'4 8.9
2017-Nov-17 19:01N 40°42' W 074°02'4 8.5
2017-Nov-17 18:30N 40°46' W 074°00'0 0.0
2017-Nov-17 18:00N 40°46' W 074°00'0 0.0
2017-Nov-17 17:30N 40°46' W 074°00'0 0.0
2017-Nov-17 17:00N 40°46' W 074°00'0 0.0
2017-Nov-17 16:30N 40°46' W 074°00'0 0.0
2017-Nov-17 16:00N 40°46' W 074°00'0 0.0
2017-Nov-17 15:30N 40°46' W 074°00'0 0.0
2017-Nov-17 15:00N 40°46' W 074°00'0 0.0
2017-Nov-17 14:30N 40°46' W 074°00'0 0.0
2017-Nov-16 19:25N 40°46' W 074°00'410.6
2017-Nov-16 19:01N 40°42' W 074°02'4 8.4
2017-Nov-16 18:30N 40°46' W 074°00'0 0.0
2017-Nov-16 18:00N 40°46' W 074°00'0 0.0
2017-Nov-16 17:30N 40°46' W 074°00'0 0.0
2017-Nov-16 17:00N 40°46' W 074°00'0 0.0
2017-Nov-16 16:30N 40°46' W 074°00'0 0.0
2017-Nov-16 16:00N 40°46' W 074°00'510.2
2017-Nov-16 15:30N 40°41' W 074°03'5 9.9
2017-Nov-16 15:00N 40°46' W 074°00'0 0.0
2017-Nov-16 14:30N 40°46' W 074°00'0 0.0
2017-Nov-16 14:00N 40°46' W 074°00'0 0.0
2017-Nov-16 13:30N 40°46' W 074°00'0 0.0
2017-Nov-16 13:00N 40°46' W 074°00'0 0.0
2017-Nov-15 19:27N 40°46' W 074°00'510.9
2017-Nov-15 19:00N 40°41' W 074°02'5 9.5
2017-Nov-15 18:30N 40°46' W 074°00'0 0.0
2017-Nov-15 18:00N 40°46' W 074°00'0 0.0
2017-Nov-15 17:30N 40°46' W 074°00'0 0.0
2017-Nov-15 17:00N 40°46' W 074°00'0 0.0
2017-Nov-15 16:30N 40°46' W 074°00'0 0.0
2017-Nov-15 16:00N 40°46' W 074°00'5 9.5
2017-Nov-15 15:30N 40°41' W 074°02'5 9.4
2017-Nov-15 15:00N 40°46' W 074°00'0 0.0
2017-Nov-15 14:31N 40°46' W 074°00'0 0.0
2017-Nov-15 14:00N 40°46' W 074°00'0 0.0
2017-Nov-15 13:30N 40°46' W 074°00'0 0.0
2017-Nov-15 13:00N 40°46' W 074°00'0 0.0
2017-Nov-15 12:30N 40°46' W 074°00'0 0.0
2017-Nov-15 12:00N 40°46' W 074°00'0 0.0
2017-Nov-15 01:48N 40°46' W 074°00'2 6.7
2017-Nov-15 01:30N 40°44' W 074°01'3 5.3
2017-Nov-15 01:00N 40°45' W 073°58'510.5
2017-Nov-15 00:30N 40°41' W 074°03'5 9.7
2017-Nov-15 00:00N 40°46' W 074°00'0 0.0
2017-Nov-14 23:30N 40°46' W 074°00'0 0.0
2017-Nov-14 23:00N 40°46' W 074°00'0 0.0
2017-Nov-14 22:30N 40°46' W 074°00'0 0.0
2017-Nov-14 22:00N 40°46' W 074°00'4 8.1
2017-Nov-14 21:31N 40°42' W 074°01'1 1.4
2017-Nov-14 21:00N 40°42' W 074°02'4 8.6
2017-Nov-14 20:30N 40°46' W 074°00'0 0.0
2017-Nov-14 20:00N 40°46' W 074°00'0 0.0
2017-Nov-14 19:30N 40°46' W 074°00'5 9.5
2017-Nov-14 19:00N 40°41' W 074°02'5 9.3
2017-Nov-14 18:30N 40°46' W 074°00'0 0.0
2017-Nov-14 18:00N 40°46' W 074°00'0 0.0
2017-Nov-14 17:30N 40°46' W 074°00'0 0.0
2017-Nov-14 17:00N 40°46' W 074°00'0 0.0
2017-Nov-14 16:30N 40°46' W 074°00'0 0.0
2017-Nov-14 16:00N 40°46' W 074°00'0 0.0
2017-Nov-14 15:30N 40°46' W 074°00'0 0.0
2017-Nov-14 15:00N 40°46' W 074°00'  
2017-Nov-12 01:52N 40°46' W 074°00'3 7.5
2017-Nov-12 01:30N 40°43' W 074°01'3 5.9
2017-Nov-12 01:00N 40°44' W 073°58'5 9.8
2017-Nov-12 00:30N 40°41' W 074°03'510.0
2017-Nov-12 00:00N 40°46' W 074°00'0 0.0
2017-Nov-11 23:30N 40°46' W 074°00'0 0.0
2017-Nov-11 23:00N 40°46' W 074°00'0 0.0
2017-Nov-11 22:31N 40°46' W 074°00'0 0.0
2017-Nov-11 22:00N 40°46' W 074°00'3 7.0
2017-Nov-11 21:30N 40°42' W 073°59'3 5.4
2017-Nov-11 21:00N 40°41' W 074°02'5 9.4
2017-Nov-11 20:30N 40°46' W 074°00'0 0.0
2017-Nov-11 20:00N 40°46' W 074°00'0 0.0
2017-Nov-11 19:30N 40°46' W 074°00'4 8.7
2017-Nov-11 19:00N 40°42' W 074°02'4 8.5
2017-Nov-11 18:30N 40°46' W 074°00'0 0.0
2017-Nov-11 18:00N 40°46' W 074°00'0 0.0
2017-Nov-11 17:30N 40°46' W 074°00'0 0.0
2017-Nov-11 16:59N 40°46' W 074°00'0 0.0
2017-Nov-11 16:30N 40°46' W 074°00'0 0.0
2017-Nov-11 16:00N 40°46' W 074°00'0 0.0
2017-Nov-11 15:30N 40°46' W 074°00'0 0.0
2017-Nov-11 15:00N 40°46' W 074°00'0 0.0
2017-Nov-11 14:30N 40°46' W 074°00'0 0.0
2017-Nov-11 14:00N 40°46' W 074°00'0 0.0
2017-Nov-11 13:30N 40°46' W 074°00'0 0.0
2017-Nov-10 15:44N 40°46' W 074°00'1 5.4
2017-Nov-10 15:30N 40°47' W 073°60'  

Dump ship's entire track history